createdAt,value
2019-02-14T00:02:23.966Z,-2.60
2019-02-14T00:05:30.373Z,-2.62
2019-02-14T00:08:36.935Z,-2.68
2019-02-14T00:11:43.220Z,-2.74
2019-02-14T00:14:49.904Z,-2.72
2019-02-14T00:17:57.359Z,-2.71
2019-02-14T00:21:03.943Z,-2.79
2019-02-14T00:24:11.112Z,-2.79
2019-02-14T00:27:17.811Z,-2.75
2019-02-14T00:30:24.830Z,-2.81
2019-02-14T00:33:31.253Z,-2.78
2019-02-14T00:36:38.396Z,-2.72
2019-02-14T00:39:44.687Z,-2.55
2019-02-14T00:42:51.462Z,-2.35
2019-02-14T00:45:57.920Z,-2.31
2019-02-14T00:49:04.509Z,-2.32
2019-02-14T00:52:12.610Z,-2.54
2019-02-14T00:55:19.362Z,-2.66
2019-02-14T00:58:25.952Z,-2.55
2019-02-14T01:01:34.115Z,-2.61
2019-02-14T01:04:40.741Z,-2.62
2019-02-14T01:07:47.213Z,-2.68
2019-02-14T01:10:54.275Z,-2.64
2019-02-14T01:14:01.207Z,-2.79
2019-02-14T01:17:08.275Z,-2.81
2019-02-14T01:20:14.990Z,-2.82
2019-02-14T01:23:21.607Z,-2.82
2019-02-14T01:26:28.138Z,-2.88
2019-02-14T01:29:34.549Z,-2.84
2019-02-14T01:32:40.904Z,-2.90
2019-02-14T01:35:47.282Z,-2.92
2019-02-14T01:38:53.913Z,-2.95
2019-02-14T01:42:00.606Z,-2.96
2019-02-14T01:45:08.020Z,-2.98
2019-02-14T01:48:15.181Z,-2.92
2019-02-14T01:51:21.670Z,-2.94
2019-02-14T01:54:28.363Z,-2.90
2019-02-14T01:57:35.101Z,-2.87
2019-02-14T02:00:41.744Z,-2.85
2019-02-14T02:03:48.340Z,-2.84
2019-02-14T02:06:54.625Z,-2.69
2019-02-14T02:10:01.386Z,-2.60
2019-02-14T02:13:10.731Z,-2.67
2019-02-14T02:16:17.284Z,-2.62
2019-02-14T02:19:24.029Z,-2.67
2019-02-14T02:22:30.673Z,-2.69
2019-02-14T02:25:37.486Z,-2.75
2019-02-14T02:28:43.950Z,-2.77
2019-02-14T02:31:51.339Z,-2.80
2019-02-14T02:34:57.847Z,-2.80
2019-02-14T02:38:04.579Z,-2.88
2019-02-14T02:41:11.161Z,-2.82
2019-02-14T02:44:17.411Z,-2.56
2019-02-14T02:47:23.974Z,-2.45
2019-02-14T02:50:30.716Z,-2.54
2019-02-14T02:53:36.952Z,-2.55
2019-02-14T02:56:43.216Z,-2.69
2019-02-14T02:59:49.834Z,-2.86
2019-02-14T03:02:56.503Z,-2.89
2019-02-14T03:06:10.263Z,-2.94
2019-02-14T03:09:11.460Z,-3.06
2019-02-14T03:12:18.298Z,-3.05
2019-02-14T03:15:27.098Z,-3.16
2019-02-14T03:18:33.594Z,-3.22
2019-02-14T03:21:40.136Z,-3.22
2019-02-14T03:24:46.940Z,-3.20
2019-02-14T03:27:53.322Z,-3.20
2019-02-14T03:30:59.673Z,-3.12
2019-02-14T03:34:06.091Z,-3.22
2019-02-14T03:37:12.706Z,-3.21
2019-02-14T03:40:18.916Z,-3.19
2019-02-14T03:43:25.593Z,-3.20
2019-02-14T03:46:32.488Z,-3.24
2019-02-14T03:49:39.477Z,-3.19
2019-02-14T03:52:45.759Z,-3.23
2019-02-14T03:55:52.077Z,-3.23
2019-02-14T03:58:58.442Z,-3.20
2019-02-14T04:02:04.727Z,-3.15
2019-02-14T04:05:11.018Z,-3.16
2019-02-14T04:08:17.287Z,-3.23
2019-02-14T04:11:25.106Z,-3.03
2019-02-14T04:14:32.253Z,-2.57
2019-02-14T04:17:38.751Z,-2.75
2019-02-14T04:20:45.282Z,-2.75
2019-02-14T04:23:52.147Z,-2.86
2019-02-14T04:26:58.578Z,-3.02
2019-02-14T04:30:06.638Z,-3.02
2019-02-14T04:33:13.236Z,-3.11
2019-02-14T04:36:19.818Z,-2.98
2019-02-14T04:39:26.598Z,-3.13
2019-02-14T04:42:33.243Z,-3.26
2019-02-14T04:45:39.984Z,-3.33
2019-02-14T04:48:46.807Z,-3.36
2019-02-14T04:51:53.666Z,-3.34
2019-02-14T04:55:00.016Z,-3.42
2019-02-14T04:58:06.678Z,-3.44
2019-02-14T05:01:12.997Z,-3.47
2019-02-14T05:04:19.702Z,-3.50
2019-02-14T05:07:28.083Z,-3.48
2019-02-14T05:10:34.676Z,-3.47
2019-02-14T05:13:41.735Z,-3.53
2019-02-14T05:16:48.392Z,-3.65
2019-02-14T05:19:54.856Z,-3.68
2019-02-14T05:23:01.562Z,-3.70
2019-02-14T05:26:07.949Z,-3.72
2019-02-14T05:29:14.935Z,-3.78
2019-02-14T05:32:21.379Z,-3.80
2019-02-14T05:35:28.100Z,-3.83
2019-02-14T05:38:34.751Z,-3.90
2019-02-14T05:41:41.548Z,-3.90
2019-02-14T05:44:48.507Z,-3.86
2019-02-14T05:47:54.751Z,-3.88
2019-02-14T05:51:01.340Z,-3.81
2019-02-14T05:54:07.983Z,-3.82
2019-02-14T05:57:15.780Z,-3.82
2019-02-14T06:00:22.391Z,-3.82
2019-02-14T06:03:28.765Z,-3.84
2019-02-14T06:06:35.886Z,-3.80
2019-02-14T06:09:42.775Z,-3.78
2019-02-14T06:12:49.723Z,-3.88
2019-02-14T06:15:56.384Z,-3.90
2019-02-14T06:19:02.854Z,-3.91
2019-02-14T06:22:09.400Z,-3.93
2019-02-14T06:25:15.874Z,-3.92
2019-02-14T06:28:22.319Z,-3.91
2019-02-14T06:31:28.983Z,-3.90
2019-02-14T06:34:35.205Z,-3.86
2019-02-14T06:37:41.731Z,-3.88
2019-02-14T06:40:48.394Z,-3.92
2019-02-14T06:43:54.740Z,-3.86
2019-02-14T06:47:01.648Z,-3.84
2019-02-14T06:50:08.640Z,-3.69
2019-02-14T06:53:14.898Z,-3.56
2019-02-14T06:56:21.417Z,-3.56
2019-02-14T06:59:30.157Z,-3.47
2019-02-14T07:02:37.477Z,-3.29
2019-02-14T07:05:44.496Z,-3.12
2019-02-14T07:08:58.097Z,-3.12
2019-02-14T07:12:07.223Z,-3.06
2019-02-14T07:15:14.722Z,-3.03
2019-02-14T07:18:21.461Z,-2.91
2019-02-14T07:21:28.464Z,-2.81
2019-02-14T07:24:35.418Z,-2.71
2019-02-14T07:27:42.614Z,-2.73
2019-02-14T07:30:51.624Z,-2.65
2019-02-14T07:33:58.299Z,-2.54
2019-02-14T07:37:05.254Z,-2.28
2019-02-14T07:40:13.039Z,-2.19
2019-02-14T07:43:21.039Z,-2.15
2019-02-14T07:46:27.816Z,-1.96
2019-02-14T07:49:34.296Z,-1.79
2019-02-14T07:52:40.955Z,-1.71
2019-02-14T07:55:47.491Z,-1.61
2019-02-14T07:58:54.073Z,-1.40
2019-02-14T08:02:01.749Z,-1.18
2019-02-14T08:05:07.902Z,-0.83
2019-02-14T08:08:14.210Z,-0.61
2019-02-14T08:11:20.902Z,-0.55
2019-02-14T08:14:27.394Z,-0.31
2019-02-14T08:17:34.057Z,-0.12
2019-02-14T08:20:40.686Z,0.14
2019-02-14T08:23:47.358Z,0.08
2019-02-14T08:26:53.820Z,0.25
2019-02-14T08:30:00.581Z,0.33
2019-02-14T08:33:07.259Z,0.34
2019-02-14T08:36:13.731Z,0.41
2019-02-14T08:39:20.424Z,0.43
2019-02-14T08:42:26.781Z,0.42
2019-02-14T08:45:33.691Z,0.56
2019-02-14T08:48:41.792Z,0.70
2019-02-14T08:51:48.638Z,0.84
2019-02-14T08:54:59.695Z,0.95
2019-02-14T08:58:06.159Z,1.05
2019-02-14T09:01:13.088Z,1.19
2019-02-14T09:04:19.687Z,1.39
2019-02-14T09:07:26.441Z,1.47
2019-02-14T09:10:33.130Z,1.85
2019-02-14T09:13:39.990Z,2.16
2019-02-14T09:16:46.751Z,2.36
2019-02-14T09:19:53.453Z,2.45
2019-02-14T09:23:00.069Z,2.69
2019-02-14T09:26:06.743Z,2.98
2019-02-14T09:29:14.382Z,3.03
2019-02-14T09:32:26.122Z,3.20
2019-02-14T09:35:32.769Z,3.58
2019-02-14T09:38:40.721Z,4.13
2019-02-14T09:41:47.698Z,4.41
2019-02-14T09:44:54.655Z,4.75
2019-02-14T09:48:01.355Z,5.18
2019-02-14T09:51:08.571Z,5.52
2019-02-14T09:54:15.199Z,5.74
2019-02-14T09:57:21.584Z,6.07
2019-02-14T10:00:28.378Z,6.00
2019-02-14T10:03:35.090Z,6.02
2019-02-14T10:06:41.517Z,6.22
2019-02-14T10:09:48.080Z,6.53
2019-02-14T10:12:55.858Z,6.29
2019-02-14T10:16:02.475Z,6.22
2019-02-14T10:19:09.185Z,6.31
2019-02-14T10:22:16.498Z,6.56
2019-02-14T10:25:23.609Z,6.65
2019-02-14T10:28:31.145Z,6.94
2019-02-14T10:31:38.638Z,7.05
2019-02-14T10:34:45.215Z,7.56
2019-02-14T10:37:52.076Z,7.73
2019-02-14T10:40:58.456Z,8.25
2019-02-14T10:44:05.257Z,7.69
2019-02-14T10:47:11.983Z,7.66
2019-02-14T10:50:18.683Z,7.60
2019-02-14T10:53:35.229Z,7.70
2019-02-14T10:56:42.797Z,7.85
2019-02-14T10:59:50.305Z,7.80
2019-02-14T11:03:01.556Z,7.91
2019-02-14T11:06:09.923Z,8.01
2019-02-14T11:09:17.717Z,7.99
2019-02-14T11:12:25.462Z,8.05
2019-02-14T11:15:32.056Z,8.10
2019-02-14T11:18:44.243Z,8.03
2019-02-14T11:21:47.148Z,8.06
2019-02-14T11:24:55.358Z,7.86
2019-02-14T11:28:02.111Z,7.89
2019-02-14T11:31:09.589Z,7.84
2019-02-14T11:34:16.255Z,7.82
2019-02-14T11:37:22.800Z,7.75
2019-02-14T11:40:29.696Z,7.64
2019-02-14T11:43:36.353Z,7.56
2019-02-14T11:46:51.297Z,7.38
2019-02-14T11:49:51.009Z,7.21
2019-02-14T11:52:57.512Z,7.24
2019-02-14T11:56:04.092Z,7.00
2019-02-14T11:59:10.753Z,6.84
2019-02-14T12:02:17.219Z,6.90
2019-02-14T12:05:23.505Z,7.19
2019-02-14T12:08:30.030Z,7.69
2019-02-14T12:11:38.874Z,8.16
2019-02-14T12:14:45.427Z,8.54
2019-02-14T12:17:52.500Z,8.81
2019-02-14T12:20:58.806Z,9.14
2019-02-14T12:24:05.758Z,9.26
2019-02-14T12:27:12.641Z,9.26
2019-02-14T12:30:19.072Z,9.24
2019-02-14T12:33:25.670Z,9.42
2019-02-14T12:36:32.453Z,9.63
2019-02-14T12:39:39.806Z,9.70
2019-02-14T12:42:46.696Z,9.78
2019-02-14T12:45:53.057Z,9.79
2019-02-14T12:48:59.955Z,10.00
2019-02-14T12:52:06.841Z,10.10
2019-02-14T12:55:13.212Z,10.07
2019-02-14T12:58:19.791Z,10.31
2019-02-14T13:01:26.391Z,10.48
2019-02-14T13:04:32.934Z,10.53
2019-02-14T13:07:39.962Z,10.65
2019-02-14T13:10:48.134Z,10.84
2019-02-14T13:13:56.053Z,10.88
2019-02-14T13:17:02.477Z,10.94
2019-02-14T13:20:09.691Z,10.99
2019-02-14T13:23:16.159Z,10.93
2019-02-14T13:26:23.848Z,11.07
2019-02-14T13:29:30.500Z,11.02
2019-02-14T13:32:37.614Z,10.81
2019-02-14T13:35:44.436Z,10.85
2019-02-14T13:38:51.218Z,11.07
2019-02-14T13:41:58.626Z,11.33
2019-02-14T13:45:06.141Z,11.33
2019-02-14T13:48:12.833Z,11.47
2019-02-14T13:51:20.272Z,11.26
2019-02-14T13:54:26.907Z,11.15
2019-02-14T13:57:33.672Z,11.27
2019-02-14T14:00:41.619Z,11.34
2019-02-14T14:03:47.798Z,11.27
2019-02-14T14:06:54.440Z,11.27
2019-02-14T14:10:00.845Z,11.06
2019-02-14T14:13:07.897Z,11.21
2019-02-14T14:16:14.477Z,11.33
2019-02-14T14:19:21.423Z,11.33
2019-02-14T14:22:28.167Z,11.36
2019-02-14T14:25:34.482Z,11.36
2019-02-14T14:28:41.094Z,11.33
2019-02-14T14:31:48.339Z,11.43
2019-02-14T14:34:54.941Z,11.30
2019-02-14T14:38:01.527Z,11.34
2019-02-14T14:41:08.223Z,11.25
2019-02-14T14:44:49.195Z,11.32
2019-02-14T14:47:55.653Z,11.25
2019-02-14T14:51:02.109Z,11.19
2019-02-14T14:54:08.923Z,11.10
2019-02-14T14:57:15.470Z,10.98
2019-02-14T15:00:22.501Z,10.98
2019-02-14T15:03:29.409Z,10.95
2019-02-14T15:06:36.994Z,10.95
2019-02-14T15:09:43.476Z,11.01
2019-02-14T15:12:53.132Z,10.79
2019-02-14T15:15:59.577Z,10.63
2019-02-14T15:19:06.360Z,10.35
2019-02-14T15:22:13.023Z,10.32
2019-02-14T15:25:19.817Z,10.23
2019-02-14T15:28:26.165Z,9.99
2019-02-14T15:31:33.092Z,9.89
2019-02-14T15:34:40.023Z,9.71
2019-02-14T15:37:47.243Z,9.40
2019-02-14T15:40:55.024Z,9.14
2019-02-14T15:44:03.554Z,8.88
2019-02-14T15:47:10.337Z,8.54
2019-02-14T15:50:17.210Z,8.32
2019-02-14T15:53:24.350Z,8.08
2019-02-14T15:56:31.602Z,7.82
2019-02-14T15:59:40.475Z,7.54
2019-02-14T16:02:47.961Z,7.20
2019-02-14T16:05:55.650Z,7.00
2019-02-14T16:09:06.110Z,6.62
2019-02-14T16:12:14.030Z,6.42
2019-02-14T16:15:20.739Z,6.06
2019-02-14T16:18:27.500Z,5.61
2019-02-14T16:21:35.088Z,5.41
2019-02-14T16:24:43.056Z,5.23
2019-02-14T16:27:50.462Z,5.02
2019-02-14T16:30:57.636Z,4.67
2019-02-14T16:34:05.290Z,4.48
2019-02-14T16:37:12.333Z,4.29
2019-02-14T16:40:27.422Z,4.07
2019-02-14T16:43:27.950Z,3.89
2019-02-14T16:46:34.906Z,3.74
2019-02-14T16:49:41.953Z,3.57
2019-02-14T16:52:48.647Z,3.43
2019-02-14T16:56:01.841Z,3.37
2019-02-14T16:59:04.885Z,3.20
2019-02-14T17:02:12.002Z,3.03
2019-02-14T17:05:18.480Z,2.93
2019-02-14T17:08:25.369Z,2.82
2019-02-14T17:11:32.387Z,2.69
2019-02-14T17:14:39.231Z,2.56
2019-02-14T17:17:45.650Z,2.47
2019-02-14T17:20:52.823Z,2.36
2019-02-14T17:24:00.532Z,2.19
2019-02-14T17:27:07.597Z,2.06
2019-02-14T17:30:15.089Z,1.94
2019-02-14T17:33:21.825Z,1.73
2019-02-14T17:36:28.277Z,1.63
2019-02-14T17:39:36.867Z,1.59
2019-02-14T17:42:43.681Z,1.37
2019-02-14T17:45:50.646Z,1.25
2019-02-14T17:48:57.454Z,1.18
2019-02-14T17:52:04.112Z,1.09
2019-02-14T17:55:12.450Z,1.01
2019-02-14T17:58:18.868Z,0.91
2019-02-14T18:01:27.280Z,0.83
2019-02-14T18:04:33.802Z,0.77
2019-02-14T18:07:41.317Z,0.75
2019-02-14T18:10:54.726Z,0.70
2019-02-14T18:13:56.576Z,0.65
2019-02-14T18:17:03.169Z,0.59
2019-02-14T18:20:10.666Z,0.51
2019-02-14T18:23:17.413Z,0.42
2019-02-14T18:26:24.216Z,0.33
2019-02-14T18:29:30.749Z,0.24
2019-02-14T18:32:37.196Z,0.16
2019-02-14T18:35:44.089Z,0.08
2019-02-14T18:38:50.800Z,0.11
2019-02-14T18:41:58.956Z,0.14
2019-02-14T18:45:07.779Z,0.10
2019-02-14T18:48:14.424Z,-0.07
2019-02-14T18:51:21.935Z,-0.14
2019-02-14T18:54:28.318Z,-0.29
2019-02-14T18:57:35.563Z,-0.35
2019-02-14T19:00:45.329Z,-0.40
2019-02-14T19:03:52.462Z,-0.47
2019-02-14T19:06:59.009Z,-0.54
2019-02-14T19:10:05.497Z,-0.55
2019-02-14T19:13:15.596Z,-0.67
2019-02-14T19:16:22.316Z,-0.77
2019-02-14T19:19:29.114Z,-0.78
2019-02-14T19:22:36.306Z,-0.81
2019-02-14T19:25:42.816Z,-0.86
2019-02-14T19:28:49.847Z,-0.93
2019-02-14T19:31:56.809Z,-1.03
2019-02-14T19:35:04.157Z,-1.05
2019-02-14T19:38:12.310Z,-1.11
2019-02-14T19:41:25.336Z,-1.15
2019-02-14T19:44:27.507Z,-1.17
2019-02-14T19:47:36.814Z,-1.19
2019-02-14T19:50:43.888Z,-1.25
2019-02-14T19:53:50.176Z,-1.30
2019-02-14T19:56:56.964Z,-1.33
2019-02-14T20:00:04.495Z,-1.34
2019-02-14T20:03:11.323Z,-1.39
2019-02-14T20:06:18.232Z,-1.44
2019-02-14T20:09:25.760Z,-1.47
2019-02-14T20:12:33.001Z,-1.51
2019-02-14T20:15:39.818Z,-1.55
2019-02-14T20:18:46.979Z,-1.58
2019-02-14T20:21:54.081Z,-1.58
2019-02-14T20:25:00.988Z,-1.62
2019-02-14T20:28:07.586Z,-1.66
2019-02-14T20:31:15.908Z,-1.69
2019-02-14T20:34:22.863Z,-1.73
2019-02-14T20:37:31.606Z,-1.75
2019-02-14T20:40:38.607Z,-1.76
2019-02-14T20:43:47.367Z,-1.79
2019-02-14T20:46:54.358Z,-1.79
2019-02-14T20:50:02.383Z,-1.83
2019-02-14T20:53:10.790Z,-1.86
2019-02-14T20:56:17.832Z,-1.89
2019-02-14T20:59:25.858Z,-1.95
2019-02-14T21:02:33.504Z,-1.95
2019-02-14T21:05:40.333Z,-1.95
2019-02-14T21:08:47.377Z,-2.00
2019-02-14T21:11:56.519Z,-2.04
2019-02-14T21:15:04.420Z,-2.02
2019-02-14T21:18:10.995Z,-2.04
2019-02-14T21:21:18.082Z,-2.03
2019-02-14T21:24:25.024Z,-2.04
2019-02-14T21:27:35.224Z,-2.01
2019-02-14T21:30:41.852Z,-2.02
2019-02-14T21:33:48.818Z,-2.08
2019-02-14T21:36:55.265Z,-2.11
2019-02-14T21:40:01.974Z,-2.14
2019-02-14T21:43:09.034Z,-2.18
2019-02-14T21:46:16.062Z,-2.21
2019-02-14T21:49:22.835Z,-2.19
2019-02-14T21:52:29.865Z,-2.25
2019-02-14T21:55:36.796Z,-2.22
2019-02-14T21:58:44.064Z,-2.27
2019-02-14T22:01:51.037Z,-2.30
2019-02-14T22:04:57.603Z,-2.34
2019-02-14T22:08:04.218Z,-2.35
2019-02-14T22:11:11.641Z,-2.35
2019-02-14T22:14:18.101Z,-2.35
2019-02-14T22:17:25.151Z,-2.36
2019-02-14T22:20:32.098Z,-2.39
2019-02-14T22:23:38.897Z,-2.41
2019-02-14T22:26:45.557Z,-2.41
2019-02-14T22:29:52.396Z,-2.44
2019-02-14T22:32:58.746Z,-2.46
2019-02-14T22:36:05.678Z,-2.50
2019-02-14T22:39:13.706Z,-2.52
2019-02-14T22:42:20.886Z,-2.55
2019-02-14T22:45:27.547Z,-2.59
2019-02-14T22:48:34.605Z,-2.65
2019-02-14T22:51:43.950Z,-2.69
2019-02-14T22:54:50.802Z,-2.72
2019-02-14T22:57:57.349Z,-2.75
2019-02-14T23:01:04.358Z,-2.76
2019-02-14T23:04:11.141Z,-2.79
2019-02-14T23:07:17.580Z,-2.75
2019-02-14T23:10:24.168Z,-2.79
2019-02-14T23:13:31.171Z,-2.73
2019-02-14T23:16:38.382Z,-2.68
2019-02-14T23:19:46.877Z,-2.78
2019-02-14T23:22:53.923Z,-2.79
2019-02-14T23:26:00.736Z,-2.84
2019-02-14T23:29:07.388Z,-2.87
2019-02-14T23:32:13.924Z,-2.92
2019-02-14T23:35:20.404Z,-2.92
2019-02-14T23:38:26.919Z,-2.92
2019-02-14T23:41:34.484Z,-2.93
2019-02-14T23:44:41.290Z,-2.94
2019-02-14T23:47:48.355Z,-2.95
2019-02-14T23:50:55.730Z,-2.98
2019-02-14T23:54:02.333Z,-3.00
2019-02-14T23:57:09.002Z,-3.02
